createdAt,value
2022-12-18T00:03:02.081Z,10.80
2022-12-18T00:06:04.372Z,12.73
2022-12-18T00:09:06.428Z,13.90
2022-12-18T00:15:17.958Z,12.90
2022-12-18T00:18:20.758Z,12.33
2022-12-18T00:21:23.310Z,13.63
2022-12-18T00:24:25.569Z,12.27
2022-12-18T00:27:27.618Z,11.73
2022-12-18T00:30:29.738Z,14.83
2022-12-18T00:33:32.027Z,11.70
2022-12-18T00:36:35.573Z,11.30
2022-12-18T00:39:37.610Z,11.97
2022-12-18T00:42:57.954Z,11.87
2022-12-18T00:46:00.079Z,12.80
2022-12-18T00:49:02.405Z,11.70
2022-12-18T00:52:04.606Z,13.23
2022-12-18T00:55:07.354Z,11.20
2022-12-18T00:58:11.350Z,14.30
2022-12-18T01:01:13.742Z,11.03
2022-12-18T01:04:16.687Z,11.00
2022-12-18T01:07:21.109Z,11.83
2022-12-18T01:10:24.695Z,10.80
2022-12-18T01:13:26.812Z,10.27
2022-12-18T01:16:29.056Z,11.07
2022-12-18T01:19:32.312Z,8.23
2022-12-18T01:22:34.462Z,9.27
2022-12-18T01:25:39.873Z,8.00
2022-12-18T01:28:45.730Z,11.27
2022-12-18T01:31:47.819Z,8.87
2022-12-18T01:34:49.959Z,8.93
2022-12-18T01:37:56.586Z,8.90
2022-12-18T01:41:00.053Z,9.47
2022-12-18T01:44:03.522Z,9.97
2022-12-18T01:47:06.583Z,9.33
2022-12-18T01:50:19.504Z,9.90
2022-12-18T01:53:24.666Z,11.47
2022-12-18T01:56:26.897Z,13.27
2022-12-18T01:59:31.338Z,13.30
2022-12-18T02:02:34.199Z,14.47
2022-12-18T02:06:05.088Z,12.63
2022-12-18T02:09:13.517Z,15.47
2022-12-18T02:12:18.985Z,14.53
2022-12-18T02:15:34.295Z,16.43
2022-12-18T02:18:45.656Z,14.57
2022-12-18T02:21:51.910Z,14.73
2022-12-18T02:25:11.897Z,17.63
2022-12-18T02:28:16.885Z,17.70
2022-12-18T02:31:25.106Z,16.63
2022-12-18T02:34:33.888Z,18.70
2022-12-18T02:37:38.348Z,16.17
2022-12-18T02:40:43.592Z,18.13
2022-12-18T02:44:03.541Z,22.43
2022-12-18T02:47:13.740Z,23.07
2022-12-18T02:50:38.217Z,22.20
2022-12-18T02:53:52.124Z,21.27
2022-12-18T02:56:57.750Z,24.27
2022-12-18T03:00:03.132Z,24.27
2022-12-18T03:03:20.301Z,22.17
2022-12-18T03:06:49.707Z,20.67
2022-12-18T03:09:55.738Z,19.77
2022-12-18T03:13:06.270Z,21.63
2022-12-18T03:16:16.358Z,21.07
2022-12-18T03:19:23.047Z,21.67
2022-12-18T03:22:31.466Z,19.70
2022-12-18T03:25:36.040Z,20.07
2022-12-18T03:28:43.672Z,19.67
2022-12-18T03:31:52.624Z,21.07
2022-12-18T03:35:02.150Z,17.10
2022-12-18T03:38:08.222Z,16.60
2022-12-18T03:41:24.359Z,16.37
2022-12-18T03:44:54.423Z,16.30
2022-12-18T03:48:14.205Z,16.47
2022-12-18T03:51:44.922Z,15.67
2022-12-18T03:54:48.443Z,18.80
2022-12-18T03:57:55.035Z,16.03
2022-12-18T04:01:03.451Z,16.17
2022-12-18T04:04:06.861Z,16.07
2022-12-18T04:07:13.257Z,15.43
2022-12-18T04:10:16.949Z,14.67
2022-12-18T04:13:30.088Z,15.13
2022-12-18T04:16:34.523Z,14.60
2022-12-18T04:19:39.177Z,16.33
2022-12-18T04:22:43.359Z,17.27
2022-12-18T04:25:48.110Z,15.83
2022-12-18T04:28:56.562Z,14.47
2022-12-18T04:31:58.621Z,14.87
2022-12-18T04:35:01.595Z,16.50
2022-12-18T04:38:03.692Z,14.37
2022-12-18T04:41:06.075Z,16.27
2022-12-18T04:44:08.251Z,15.80
2022-12-18T04:47:10.319Z,16.73
2022-12-18T04:50:12.477Z,15.90
2022-12-18T04:53:14.576Z,15.07
2022-12-18T04:56:17.482Z,15.93
2022-12-18T04:59:19.505Z,17.57
2022-12-18T05:02:21.727Z,15.87
2022-12-18T05:05:23.975Z,14.07
2022-12-18T05:08:26.215Z,14.57
2022-12-18T05:11:28.282Z,11.90
2022-12-18T05:14:30.536Z,15.70
2022-12-18T05:17:32.562Z,11.87
2022-12-18T05:20:34.777Z,13.53
2022-12-18T05:23:37.417Z,14.40
2022-12-18T05:26:39.761Z,14.13
2022-12-18T05:29:41.826Z,11.60
2022-12-18T05:32:44.050Z,12.63
2022-12-18T05:35:51.035Z,14.10
2022-12-18T05:38:53.071Z,11.00
2022-12-18T05:41:55.161Z,12.57
2022-12-18T05:44:57.299Z,17.73
2022-12-18T05:47:59.456Z,14.37
2022-12-18T05:51:10.115Z,15.10
2022-12-18T05:54:12.564Z,14.83
2022-12-18T05:57:14.762Z,13.43
2022-12-18T06:00:17.413Z,15.40
2022-12-18T06:03:19.567Z,13.60
2022-12-18T06:06:24.827Z,14.47
2022-12-18T06:09:26.875Z,17.57
2022-12-18T06:12:28.928Z,15.87
2022-12-18T06:15:31.056Z,15.07
2022-12-18T06:18:33.704Z,15.03
2022-12-18T06:21:35.890Z,15.30
2022-12-18T06:24:38.399Z,15.67
2022-12-18T06:27:40.479Z,14.97
2022-12-18T06:30:48.242Z,17.43
2022-12-18T06:33:50.309Z,12.33
2022-12-18T06:36:52.432Z,13.60
2022-12-18T06:39:55.220Z,15.17
2022-12-18T06:42:57.508Z,15.13
2022-12-18T06:46:01.489Z,17.37
2022-12-18T06:49:03.582Z,18.07
2022-12-18T06:52:05.671Z,16.10
2022-12-18T06:55:12.104Z,14.53
2022-12-18T06:58:14.255Z,13.53
2022-12-18T07:01:16.532Z,18.17
2022-12-18T07:04:18.726Z,15.50
2022-12-18T07:07:20.927Z,15.53
2022-12-18T07:10:22.971Z,14.97
2022-12-18T07:13:25.193Z,14.77
2022-12-18T07:16:29.527Z,15.77
2022-12-18T07:19:31.595Z,12.47
2022-12-18T07:22:34.426Z,14.47
2022-12-18T07:25:37.496Z,14.30
2022-12-18T07:28:40.933Z,13.57
2022-12-18T07:31:43.348Z,13.63
2022-12-18T07:34:45.513Z,16.93
2022-12-18T07:37:49.287Z,15.30
2022-12-18T07:40:51.377Z,15.17
2022-12-18T07:43:53.517Z,14.23
2022-12-18T07:46:55.631Z,12.07
2022-12-18T07:49:57.750Z,13.67
2022-12-18T07:53:04.687Z,15.97
2022-12-18T07:59:32.388Z,13.50
2022-12-18T08:02:34.569Z,13.73
2022-12-18T08:05:36.812Z,14.03
2022-12-18T08:08:39.001Z,13.47
2022-12-18T08:11:41.287Z,17.33
2022-12-18T08:14:43.418Z,18.23
2022-12-18T08:17:45.497Z,15.13
2022-12-18T08:20:47.568Z,17.03
2022-12-18T08:23:51.764Z,16.93
2022-12-18T08:27:20.844Z,16.73
2022-12-18T08:30:16.364Z,17.17
2022-12-18T08:33:18.423Z,16.53
2022-12-18T08:36:23.441Z,21.73
2022-12-18T08:39:26.632Z,15.53
2022-12-18T08:42:47.089Z,18.57
2022-12-18T08:45:50.185Z,17.63
2022-12-18T08:48:53.678Z,15.47
2022-12-18T08:51:58.350Z,16.10
2022-12-18T08:55:00.503Z,17.43
2022-12-18T08:58:02.503Z,16.13
2022-12-18T09:01:07.055Z,15.07
2022-12-18T09:04:10.657Z,16.30
2022-12-18T09:07:12.769Z,16.60
2022-12-18T09:10:14.953Z,16.93
2022-12-18T09:13:18.277Z,15.87
2022-12-18T09:16:21.084Z,19.33
2022-12-18T09:19:23.195Z,18.77
2022-12-18T09:22:25.216Z,19.30
2022-12-18T09:25:28.928Z,17.77
2022-12-18T09:28:31.083Z,21.87
2022-12-18T09:31:33.098Z,22.03
2022-12-18T09:34:35.392Z,21.60
2022-12-18T09:37:37.461Z,20.83
2022-12-18T09:40:48.611Z,23.27
2022-12-18T09:44:00.929Z,23.27
2022-12-18T09:47:31.838Z,21.10
2022-12-18T09:50:41.200Z,19.87
2022-12-18T09:53:51.881Z,23.53
2022-12-18T09:56:53.971Z,23.27
2022-12-18T10:00:11.480Z,24.20
2022-12-18T10:03:17.453Z,23.90
2022-12-18T10:06:43.384Z,22.77
2022-12-18T10:09:57.816Z,21.67
2022-12-18T10:13:21.018Z,24.47
2022-12-18T10:16:28.719Z,30.17
2022-12-18T10:19:30.771Z,25.23
2022-12-18T10:22:35.454Z,25.70
2022-12-18T10:25:47.128Z,25.60
2022-12-18T10:28:49.177Z,24.27
2022-12-18T10:31:52.796Z,27.20
2022-12-18T10:35:00.720Z,27.87
2022-12-18T10:38:07.253Z,25.80
2022-12-18T10:41:26.971Z,25.97
2022-12-18T10:44:29.685Z,23.73
2022-12-18T10:47:31.846Z,27.87
2022-12-18T10:51:09.065Z,27.13
2022-12-18T10:54:02.693Z,27.50
2022-12-18T10:57:28.058Z,30.90
2022-12-18T11:00:32.124Z,27.37
2022-12-18T11:03:37.405Z,27.47
2022-12-18T11:06:58.741Z,24.47
2022-12-18T11:10:02.468Z,26.83
2022-12-18T11:13:32.592Z,27.97
2022-12-18T11:16:38.661Z,30.50
2022-12-18T11:19:42.577Z,27.00
2022-12-18T11:22:44.782Z,28.77
2022-12-18T11:26:02.897Z,27.47
2022-12-18T11:29:18.866Z,28.37
2022-12-18T11:32:43.500Z,27.80
2022-12-18T11:35:53.280Z,26.50
2022-12-18T11:38:56.789Z,29.67
2022-12-18T11:42:24.417Z,31.60
2022-12-18T11:45:37.599Z,27.97
2022-12-18T11:48:46.278Z,29.77
2022-12-18T11:52:01.646Z,27.57
2022-12-18T11:55:12.772Z,31.23
2022-12-18T11:58:39.184Z,27.27
2022-12-18T12:01:51.964Z,29.60
2022-12-18T12:04:54.182Z,31.70
2022-12-18T12:08:40.849Z,30.23
2022-12-18T12:11:45.759Z,27.83
2022-12-18T12:15:18.646Z,26.63
2022-12-18T12:18:48.101Z,27.27
2022-12-18T12:21:56.577Z,25.87
2022-12-18T12:25:07.560Z,29.77
2022-12-18T12:28:15.244Z,24.43
2022-12-18T12:31:38.987Z,23.70
2022-12-18T12:35:30.891Z,25.77
2022-12-18T12:38:52.304Z,28.37
2022-12-18T12:42:18.678Z,29.33
2022-12-18T12:45:32.301Z,29.63
2022-12-18T12:48:37.014Z,26.87
2022-12-18T12:51:44.119Z,26.13
2022-12-18T12:54:47.982Z,29.73
2022-12-18T12:57:59.272Z,26.10
2022-12-18T13:01:06.554Z,23.83
2022-12-18T13:04:23.034Z,25.47
2022-12-18T13:07:27.943Z,27.97
2022-12-18T13:10:42.758Z,31.63
2022-12-18T13:13:53.287Z,27.60
2022-12-18T13:17:32.332Z,29.53
2022-12-18T13:20:38.576Z,33.77
2022-12-18T13:23:42.158Z,35.57
2022-12-18T13:26:44.518Z,32.30
2022-12-18T13:29:47.427Z,36.00
2022-12-18T13:32:49.658Z,35.33
2022-12-18T13:35:54.185Z,34.57
2022-12-18T13:39:25.794Z,33.17
2022-12-18T13:42:49.210Z,35.20
2022-12-18T13:46:07.837Z,36.37
2022-12-18T13:49:15.634Z,38.63
2022-12-18T13:52:25.756Z,43.30
2022-12-18T13:55:28.493Z,40.23
2022-12-18T13:58:30.678Z,41.60
2022-12-18T14:01:32.981Z,39.23
2022-12-18T14:04:36.904Z,41.60
2022-12-18T14:07:42.970Z,35.57
2022-12-18T14:10:52.369Z,43.77
2022-12-18T14:13:54.522Z,39.37
2022-12-18T14:16:56.641Z,41.47
2022-12-18T14:19:59.361Z,37.37
2022-12-18T14:23:02.255Z,45.17
2022-12-18T14:26:30.629Z,38.83
2022-12-18T14:29:36.240Z,48.67
2022-12-18T14:32:38.394Z,40.53
2022-12-18T14:35:44.066Z,40.93
2022-12-18T14:38:50.662Z,41.67
2022-12-18T14:41:54.670Z,44.43
2022-12-18T14:45:39.116Z,43.03
2022-12-18T14:48:48.399Z,44.90
2022-12-18T14:51:54.374Z,49.60
2022-12-18T14:54:56.529Z,43.67
2022-12-18T14:57:59.275Z,44.93
2022-12-18T15:01:01.788Z,42.43
2022-12-18T15:04:06.795Z,40.87
2022-12-18T15:07:23.483Z,44.43
2022-12-18T15:10:29.497Z,38.47
2022-12-18T15:13:32.594Z,39.73
2022-12-18T15:16:37.495Z,51.10
2022-12-18T15:19:46.263Z,45.47
2022-12-18T15:22:51.037Z,46.97
2022-12-18T15:25:59.863Z,45.50
2022-12-18T15:29:04.944Z,46.87
2022-12-18T15:32:21.353Z,40.53
2022-12-18T15:35:26.774Z,49.17
2022-12-18T15:38:32.658Z,43.63
2022-12-18T15:41:37.959Z,48.90
2022-12-18T15:44:41.878Z,49.00
2022-12-18T15:47:48.164Z,51.27
2022-12-18T15:50:58.173Z,50.00
2022-12-18T15:54:05.611Z,47.27
2022-12-18T15:57:29.642Z,52.73
2022-12-18T16:00:42.665Z,45.03
2022-12-18T16:03:46.691Z,44.83
2022-12-18T16:10:17.281Z,50.13
2022-12-18T16:13:22.155Z,52.17
2022-12-18T16:16:25.288Z,51.20
2022-12-18T16:19:32.103Z,52.00
2022-12-18T16:22:38.014Z,52.57
2022-12-18T16:25:42.403Z,46.70
2022-12-18T16:28:48.504Z,45.00
2022-12-18T16:31:52.219Z,42.97
2022-12-18T16:35:00.871Z,45.50
2022-12-18T16:38:05.333Z,40.97
2022-12-18T16:41:33.236Z,42.97
2022-12-18T16:44:36.480Z,41.33
2022-12-18T16:47:42.426Z,36.30
2022-12-18T16:50:45.809Z,39.83
2022-12-18T16:53:48.686Z,51.53
2022-12-18T16:56:52.628Z,43.70
2022-12-18T16:59:59.909Z,44.53
2022-12-18T17:03:06.088Z,51.60
2022-12-18T17:06:12.269Z,40.30
2022-12-18T17:09:18.254Z,41.30
2022-12-18T17:12:22.947Z,42.47
2022-12-18T17:15:26.645Z,39.07
2022-12-18T17:18:30.396Z,46.37
2022-12-18T17:21:33.911Z,44.07
2022-12-18T17:24:38.390Z,45.93
2022-12-18T17:27:41.782Z,44.03
2022-12-18T17:30:46.332Z,45.43
2022-12-18T17:33:49.831Z,46.37
2022-12-18T17:36:54.450Z,38.87
2022-12-18T17:39:57.448Z,40.67
2022-12-18T17:43:03.508Z,34.00
2022-12-18T17:46:08.326Z,44.43
2022-12-18T17:49:13.125Z,39.30
2022-12-18T17:52:16.274Z,37.20
2022-12-18T17:55:19.618Z,40.73
2022-12-18T17:58:23.326Z,34.67
2022-12-18T18:01:26.875Z,35.43
2022-12-18T18:04:31.721Z,33.90
2022-12-18T18:07:35.069Z,36.67
2022-12-18T18:10:40.243Z,36.10
2022-12-18T18:14:02.397Z,35.50
2022-12-18T18:17:05.521Z,39.07
2022-12-18T18:20:10.775Z,36.53
2022-12-18T18:23:13.271Z,31.70
2022-12-18T18:26:18.081Z,35.73
2022-12-18T18:29:27.071Z,35.60
2022-12-18T18:32:32.062Z,29.17
2022-12-18T18:35:55.129Z,25.77
2022-12-18T18:39:01.101Z,27.47
2022-12-18T18:42:05.289Z,31.50
2022-12-18T18:45:08.989Z,40.17
2022-12-18T18:48:13.594Z,29.43
2022-12-18T18:51:21.787Z,29.17
2022-12-18T18:54:25.804Z,33.13
2022-12-18T18:57:30.496Z,27.77
2022-12-18T19:00:34.052Z,32.73
2022-12-18T19:03:40.169Z,37.37
2022-12-18T19:06:46.886Z,36.17
2022-12-18T19:09:52.610Z,27.77
2022-12-18T19:13:14.170Z,29.67
2022-12-18T19:16:17.188Z,28.80
2022-12-18T19:19:24.058Z,26.07
2022-12-18T19:22:28.444Z,29.23
2022-12-18T19:25:38.351Z,26.00
2022-12-18T19:28:44.737Z,31.10
2022-12-18T19:31:48.130Z,30.63
2022-12-18T19:34:51.891Z,28.03
2022-12-18T19:37:55.366Z,30.90
2022-12-18T19:41:00.452Z,32.77
2022-12-18T19:44:05.196Z,36.10
2022-12-18T19:47:11.463Z,30.57
2022-12-18T19:50:14.334Z,30.83
2022-12-18T19:53:17.034Z,31.00
2022-12-18T19:56:22.577Z,35.10
2022-12-18T19:59:25.753Z,36.40
2022-12-18T20:02:30.963Z,34.47
2022-12-18T20:05:35.540Z,34.90
2022-12-18T20:08:38.903Z,35.53
2022-12-18T20:11:42.558Z,33.70
2022-12-18T20:14:45.552Z,36.80
2022-12-18T20:17:48.461Z,37.60
2022-12-18T20:20:51.228Z,37.07
2022-12-18T20:23:56.062Z,36.30
2022-12-18T20:26:59.421Z,34.20
2022-12-18T20:30:02.678Z,34.63
2022-12-18T20:33:05.687Z,35.27
2022-12-18T20:36:13.138Z,42.90
2022-12-18T20:39:18.485Z,42.30
2022-12-18T20:42:21.773Z,36.30
2022-12-18T20:45:24.963Z,38.67
2022-12-18T20:48:28.617Z,27.87
2022-12-18T20:51:32.312Z,32.57
2022-12-18T20:54:36.146Z,36.10
2022-12-18T20:57:42.275Z,39.30
2022-12-18T21:00:45.983Z,36.73
2022-12-18T21:03:49.213Z,33.70
2022-12-18T21:06:57.995Z,35.20
2022-12-18T21:10:05.028Z,35.47
2022-12-18T21:13:07.898Z,35.70
2022-12-18T21:16:12.457Z,38.43
2022-12-18T21:19:19.880Z,37.70
2022-12-18T21:22:21.997Z,40.57
2022-12-18T21:25:24.449Z,39.07
2022-12-18T21:28:26.566Z,37.47
2022-12-18T21:31:32.055Z,36.83
2022-12-18T21:34:34.394Z,38.33
2022-12-18T21:37:37.080Z,33.43
2022-12-18T21:40:39.762Z,39.30
2022-12-18T21:44:00.307Z,37.53
2022-12-18T21:47:15.148Z,41.83
2022-12-18T21:50:24.032Z,34.50
2022-12-18T21:53:26.771Z,36.23
2022-12-18T21:56:45.344Z,35.93
2022-12-18T21:59:47.369Z,34.20
2022-12-18T22:03:01.113Z,39.17
2022-12-18T22:06:12.558Z,35.53
2022-12-18T22:09:17.651Z,34.13
2022-12-18T22:12:35.801Z,34.00
2022-12-18T22:15:45.314Z,33.60
2022-12-18T22:18:47.393Z,31.40
2022-12-18T22:21:49.671Z,33.10
2022-12-18T22:24:51.839Z,33.97
2022-12-18T22:28:12.502Z,31.83
2022-12-18T22:31:14.677Z,35.63
2022-12-18T22:34:21.894Z,32.30
2022-12-18T22:37:24.972Z,34.00
2022-12-18T22:40:27.814Z,31.60
2022-12-18T22:43:30.566Z,30.40
2022-12-18T22:46:35.942Z,31.47
2022-12-18T22:49:38.952Z,30.07
2022-12-18T22:52:41.552Z,34.23
2022-12-18T22:55:43.640Z,30.60
2022-12-18T22:58:49.375Z,32.57
2022-12-18T23:01:58.001Z,29.97
2022-12-18T23:05:01.276Z,30.70
2022-12-18T23:08:03.387Z,31.17
2022-12-18T23:11:06.423Z,33.37
2022-12-18T23:14:08.607Z,30.27
2022-12-18T23:17:10.765Z,28.13
2022-12-18T23:20:12.931Z,32.77
2022-12-18T23:23:15.065Z,29.67
2022-12-18T23:26:20.155Z,30.70
2022-12-18T23:29:22.184Z,28.27
2022-12-18T23:32:24.177Z,28.17
2022-12-18T23:35:26.790Z,29.63
2022-12-18T23:38:29.989Z,27.17
2022-12-18T23:41:32.989Z,24.90
2022-12-18T23:44:35.234Z,27.67
2022-12-18T23:47:37.399Z,27.70
2022-12-18T23:50:39.445Z,29.37
2022-12-18T23:53:41.984Z,28.43
2022-12-18T23:56:44.015Z,26.77
2022-12-18T23:59:46.129Z,27.13
